KFFO/FFO METAR and TAF weather

Enter ICAO airport designator
Station Type Date Time Source
KFFO METAR 2022/06/27 16:56 UTC NOAA

KFFO 271656Z AUTO 20004KT 10SM FEW200 24/06 A3017 RMK AO2 SLP214 T02390062


Station Type Date Time Source
KFFO Decoded METAR 2022/06/27 16:56 UTC NOAA

Dayton / Wright-Patterson Air Force Base, OH, United States (KFFO) 39-50N 084-03W 251M
Jun 27, 2022 - 12:56 PM EDT / 2022.06.27 1656 UTC
Wind: from the SSW (200 degrees) at 5 MPH (4 KT):0
Visibility: 10 mile(s):0
Sky conditions: mostly clear
Temperature: 75.0 F (23.9 C)
Dew Point: 43.2 F (6.2 C)
Relative Humidity: 31%
Pressure (altimeter): 30.17 in. Hg (1021 hPa)
ob: KFFO 271656Z AUTO 20004KT 10SM FEW200 24/06 A3017 RMK AO2 SLP214 T02390062
cycle: 17

Station Type Date Time Source
KFFO TAF 2022/06/27 11:16 UTC NOAA

TAF KFFO 271105Z 2711/2817 34009KT 9999 FEW040 FEW250 QNH3012INS
TEMPO 2715/2722 33010G15KT
BECMG 2800/2801 35006KT 9999 FEW040 QNH3016INS
BECMG 2807/2808 VRB03KT 9999 SKC QNH3023INS TX26/2720Z TN10/2810Z

Example: see airport list